createdAt,value
2023-12-28T00:00:40.278Z,122.1836175
2023-12-28T00:02:41.342Z,121.87365580000001
2023-12-28T00:04:42.464Z,121.8768802
2023-12-28T00:06:43.543Z,121.77678919999998
2023-12-28T00:09:45.148Z,121.55401029999999
2023-12-28T00:11:46.204Z,121.39580550000001
2023-12-28T00:13:47.301Z,121.3554463
2023-12-28T00:15:48.391Z,120.94539870000001
2023-12-28T00:17:49.497Z,121.84621980000001
2023-12-28T00:19:50.668Z,122.2917856
2023-12-28T00:21:51.739Z,122.1190478
2023-12-28T00:23:52.719Z,122.00927109999998
2023-12-28T00:25:53.815Z,122.01895689999999
2023-12-28T00:27:55.017Z,120.97930210000001
2023-12-28T00:29:55.977Z,120.6370543
2023-12-28T00:31:57.054Z,121.74774
2023-12-28T00:33:58.212Z,122.0108779
2023-12-28T00:35:59.233Z,122.29339029999998
2023-12-28T00:38:00.772Z,126.00321220000001
2023-12-28T00:40:01.395Z,129.50155239999998
2023-12-28T00:42:02.489Z,128.8380438
2023-12-28T00:44:03.593Z,128.7573288
2023-12-28T00:46:04.674Z,128.5894363
2023-12-28T00:48:05.910Z,127.96144530000001
2023-12-28T00:50:06.873Z,126.6990089
2023-12-28T00:52:07.920Z,126.2712045
2023-12-28T00:54:09.011Z,125.94510320000002
2023-12-28T00:56:10.086Z,125.67711770000001
2023-12-28T00:59:11.721Z,122.55169880000001
2023-12-28T01:01:13.076Z,120.0946274
2023-12-28T01:03:13.959Z,120.1446731
2023-12-28T01:05:14.996Z,120.3109529
2023-12-28T01:07:16.085Z,120.36099870000002
2023-12-28T01:09:17.219Z,120.2399202
2023-12-28T01:11:18.242Z,120.12852900000003
2023-12-28T01:13:19.311Z,120.04296690000001
2023-12-28T01:15:20.430Z,119.86861569999999
2023-12-28T01:17:21.490Z,119.71202480000002
2023-12-28T01:19:22.657Z,119.5941789
2023-12-28T01:21:23.668Z,119.71525630000001
2023-12-28T01:23:24.750Z,119.85247849999999
2023-12-28T01:25:25.839Z,120.02198659999999
2023-12-28T01:27:26.935Z,120.14467549999999
2023-12-28T01:30:28.589Z,120.2366922
2023-12-28T01:32:29.657Z,120.21731969999999
2023-12-28T01:34:30.822Z,121.44423979999999
2023-12-28T01:36:31.839Z,125.3413321
2023-12-28T01:38:32.897Z,129.32237250000003
2023-12-28T01:40:33.998Z,130.6606861
2023-12-28T01:42:35.094Z,130.2845358
2023-12-28T01:44:36.161Z,128.5636161
2023-12-28T01:46:37.227Z,124.30813619999999
2023-12-28T01:48:38.509Z,120.04619869999999
2023-12-28T01:50:39.396Z,118.44635840000001
2023-12-28T01:52:40.521Z,118.5319258
2023-12-28T01:54:41.629Z,118.54322640000001
2023-12-28T01:56:42.702Z,118.52223810000001
2023-12-28T01:59:44.290Z,118.5060931
2023-12-28T02:01:45.383Z,118.54161060000001
2023-12-28T02:03:47.242Z,118.46088660000001
2023-12-28T02:05:47.582Z,118.47864580000001
2023-12-28T02:07:48.643Z,118.37209779999998
2023-12-28T02:09:49.800Z,118.2041976
2023-12-28T02:11:50.833Z,118.062128
2023-12-28T02:13:51.915Z,117.91360769999999
2023-12-28T02:15:52.997Z,117.72956529999999
2023-12-28T02:17:54.412Z,117.67306339999998
2023-12-28T02:19:55.152Z,117.60849049999999
2023-12-28T02:21:56.226Z,117.45028640000001
2023-12-28T02:23:57.310Z,117.34858349999999
2023-12-28T02:25:58.401Z,117.26786870000001
2023-12-28T02:27:59.805Z,117.20006799999999
2023-12-28T02:30:00.575Z,117.0725355
2023-12-28T02:32:01.649Z,116.84490890000002
2023-12-28T02:34:02.879Z,116.615667
2023-12-28T02:36:03.833Z,116.3428373
2023-12-28T02:38:04.920Z,116.1216672
2023-12-28T02:40:05.982Z,115.88273939999999
2023-12-28T02:42:07.087Z,115.80040770000001
2023-12-28T02:44:08.176Z,115.8230091
2023-12-28T02:46:24.831Z,115.86336859999999
2023-12-28T02:48:10.474Z,115.7632798
2023-12-28T02:50:11.409Z,115.81816859999999
2023-12-28T02:52:12.499Z,115.79718170000001
2023-12-28T02:54:13.621Z,115.75359269999998
2023-12-28T02:56:14.674Z,115.57924249999999
2023-12-28T02:58:15.758Z,115.5663271
2023-12-28T03:00:16.874Z,115.48238119999999
2023-12-28T03:02:17.937Z,115.33063250000001
2023-12-28T03:04:19.103Z,115.24022829999998
2023-12-28T03:06:20.117Z,115.31448759999998
2023-12-28T03:08:21.208Z,115.2176252
2023-12-28T03:10:22.257Z,115.2079376
2023-12-28T03:12:23.374Z,115.3290144
2023-12-28T03:14:24.441Z,115.30479929999998
2023-12-28T03:16:25.535Z,115.22085380000001
2023-12-28T03:18:26.689Z,115.36130389999998
2023-12-28T03:20:27.693Z,115.40327719999998
2023-12-28T03:22:28.785Z,115.49690960000001
2023-12-28T03:24:30.008Z,115.62282909999999
2023-12-28T03:26:30.959Z,115.7358328
2023-12-28T03:28:32.025Z,115.92955669999999
2023-12-28T03:30:33.174Z,115.97798879999998
2023-12-28T03:32:34.221Z,115.9650742
2023-12-28T03:34:35.517Z,115.89081300000001
2023-12-28T03:36:36.390Z,115.77135130000002
2023-12-28T03:38:37.470Z,115.63412950000001
2023-12-28T03:40:38.541Z,115.65511569999998
2023-12-28T03:42:39.710Z,115.5065964
2023-12-28T03:44:40.725Z,115.4484798
2023-12-28T03:46:57.466Z,115.4565514
2023-12-28T03:48:42.978Z,115.2386143
2023-12-28T03:50:43.976Z,114.9835464
2023-12-28T03:52:45.121Z,114.85439269999999
2023-12-28T03:54:46.166Z,114.82210850000001
2023-12-28T03:56:47.234Z,114.7446193
2023-12-28T03:58:48.339Z,114.6638968
2023-12-28T04:00:49.524Z,114.5638018
2023-12-28T04:02:51.769Z,114.50245480000001
2023-12-28T04:04:51.609Z,114.43949070000001
2023-12-28T04:06:52.719Z,114.2215463
2023-12-28T04:08:53.766Z,114.07140770000001
2023-12-28T04:10:54.833Z,113.97938730000001
2023-12-28T04:12:55.963Z,113.90512570000001
2023-12-28T04:14:56.996Z,113.81149049999999
2023-12-28T04:16:58.087Z,113.81149050000002
2023-12-28T04:18:59.209Z,113.8292491
2023-12-28T04:21:00.267Z,113.80826219999999
2023-12-28T04:23:01.350Z,113.7921184
2023-12-28T04:25:02.474Z,113.73400000000001
2023-12-28T04:27:03.520Z,113.79050329999998
2023-12-28T04:29:04.599Z,113.9325715
2023-12-28T04:31:05.739Z,114.1295307
2023-12-28T04:33:06.776Z,114.2522248
2023-12-28T04:35:07.857Z,114.37007660000002
2023-12-28T04:37:08.943Z,114.26675619999999
2023-12-28T04:39:10.035Z,114.09724320000001
2023-12-28T04:41:11.101Z,113.793735
2023-12-28T04:43:12.198Z,113.50475980000002
2023-12-28T04:45:13.407Z,113.3271766
2023-12-28T04:47:14.363Z,113.2771309
2023-12-28T04:49:15.546Z,113.21417000000001
2023-12-28T04:51:16.545Z,113.25775819999998
2023-12-28T04:53:17.621Z,113.4321111
2023-12-28T04:55:18.712Z,113.5338164
2023-12-28T04:57:19.862Z,113.6096923
2023-12-28T04:59:20.865Z,113.5822479
2023-12-28T05:01:22.018Z,113.61292110000002
2023-12-28T05:03:23.185Z,113.58386229999999
2023-12-28T05:05:24.162Z,113.5322022
2023-12-28T05:07:25.213Z,113.4579407
2023-12-28T05:09:26.354Z,113.51928720000001
2023-12-28T05:11:27.390Z,113.50798660000001
2023-12-28T05:13:28.529Z,113.38852299999999
2023-12-28T05:15:29.808Z,113.27067389999999
2023-12-28T05:17:30.664Z,113.29811830000001
2023-12-28T05:19:31.841Z,113.20771300000001
2023-12-28T05:21:32.838Z,113.0640343
2023-12-28T05:23:33.892Z,113.03981859999999
2023-12-28T05:25:34.976Z,113.0559618
2023-12-28T05:27:36.078Z,112.97524320000002
2023-12-28T05:29:37.154Z,112.97685750000001
2023-12-28T05:31:38.368Z,113.1431374
2023-12-28T05:33:39.375Z,113.23838540000001
2023-12-28T05:35:40.424Z,113.31426119999999
2023-12-28T05:37:41.538Z,113.3820648
2023-12-28T05:39:42.680Z,113.4853852
2023-12-28T05:41:43.669Z,113.51444410000002
2023-12-28T05:43:44.757Z,113.570948
2023-12-28T05:45:45.876Z,113.5725624
2023-12-28T05:47:46.941Z,113.53220289999999
2023-12-28T05:49:48.132Z,113.55157550000001
2023-12-28T05:51:49.110Z,113.4886147
2023-12-28T05:53:50.197Z,113.373993
2023-12-28T05:55:51.266Z,113.31587530000002
2023-12-28T05:57:52.373Z,113.4837719
2023-12-28T05:59:53.441Z,113.50798750000001
2023-12-28T06:01:54.536Z,113.55964759999999
2023-12-28T06:03:55.713Z,113.65812530000001
2023-12-28T06:05:56.847Z,113.7404587
2023-12-28T06:07:57.971Z,113.7065565
2023-12-28T06:09:58.966Z,113.7033284
2023-12-28T06:11:59.941Z,113.5725637
2023-12-28T06:14:08.122Z,113.50153050000002
2023-12-28T06:16:02.213Z,113.5273607
2023-12-28T06:18:03.777Z,113.5096016
2023-12-28T06:20:04.415Z,113.66619779999999
2023-12-28T06:22:05.390Z,113.95194370000002
2023-12-28T06:24:06.479Z,114.0568787
2023-12-28T06:26:07.547Z,114.32002379999999
2023-12-28T06:28:08.684Z,114.4588618
2023-12-28T06:30:09.729Z,114.2893499
2023-12-28T06:32:10.810Z,114.34585479999998
2023-12-28T06:34:12.085Z,114.45240440000002
2023-12-28T06:36:12.991Z,114.22961910000001
2023-12-28T06:38:14.065Z,113.98746249999999
2023-12-28T06:40:15.176Z,113.88253100000001
2023-12-28T06:42:16.262Z,113.77759470000001
2023-12-28T06:44:17.326Z,113.52897930000002
2023-12-28T06:46:18.402Z,113.2771387
2023-12-28T06:48:19.599Z,113.1802768
2023-12-28T06:50:20.587Z,113.16735860000001
2023-12-28T06:52:21.659Z,112.89937360000002
2023-12-28T06:54:22.786Z,112.6394646
2023-12-28T06:56:23.842Z,112.54099049999999
2023-12-28T06:58:24.921Z,112.48449020000001
2023-12-28T07:00:26.013Z,112.36180219999999
2023-12-28T07:02:27.087Z,112.26332759999998
2023-12-28T07:04:28.344Z,112.35211819999999
2023-12-28T07:06:29.280Z,112.4231485
2023-12-28T07:08:32.027Z,112.47803389999999
2023-12-28T07:10:31.495Z,112.51839190000001
2023-12-28T07:12:32.567Z,112.64592329999998
2023-12-28T07:14:33.609Z,112.77668390000001
2023-12-28T07:16:34.682Z,112.80412859999998
2023-12-28T07:18:35.897Z,112.7653852
2023-12-28T07:20:36.855Z,112.7282557
2023-12-28T07:22:37.955Z,112.59910850000001
2023-12-28T07:24:39.039Z,112.4893343
2023-12-28T07:26:40.108Z,112.59426509999999
2023-12-28T07:28:41.193Z,112.73955549999998
2023-12-28T07:30:42.431Z,112.82834319999999
2023-12-28T07:32:43.380Z,113.2981266
2023-12-28T07:34:44.513Z,113.77436560000001
2023-12-28T07:36:45.545Z,113.9487193
2023-12-28T07:38:46.627Z,114.029439
2023-12-28T07:40:47.721Z,114.08755649999998
2023-12-28T07:42:48.819Z,113.71140489999998
2023-12-28T07:44:49.875Z,113.2383937
2023-12-28T07:46:50.962Z,113.07372719999998
2023-12-28T07:48:52.129Z,113.2900545
2023-12-28T07:50:53.141Z,113.62584480000001
2023-12-28T07:52:54.230Z,114.4330324
2023-12-28T07:54:55.330Z,115.26281939999998
2023-12-28T07:56:56.390Z,115.885969
2023-12-28T07:58:57.460Z,116.29440600000001
2023-12-28T08:00:58.602Z,116.39288299999998
2023-12-28T08:02:59.643Z,115.85206830000001
2023-12-28T08:05:00.747Z,115.14981370000001
2023-12-28T08:07:01.895Z,114.67680070000002
2023-12-28T08:09:02.908Z,114.1440566
2023-12-28T08:11:04.013Z,113.96324590000002
2023-12-28T08:13:05.108Z,113.9244997
2023-12-28T08:15:06.160Z,114.5266621
2023-12-28T08:17:07.244Z,114.8979692
2023-12-28T08:19:08.389Z,115.2418314
2023-12-28T08:21:09.428Z,115.4856048
2023-12-28T08:23:15.053Z,116.05386410000001
2023-12-28T08:25:11.589Z,115.96991819999998
2023-12-28T08:27:12.669Z,115.21116519999998
2023-12-28T08:29:13.788Z,114.373307
2023-12-28T08:31:14.949Z,113.69849819999999
2023-12-28T08:33:16.072Z,112.7799223
2023-12-28T08:35:17.027Z,112.33112530000001
2023-12-28T08:37:18.105Z,112.47964520000001
2023-12-28T08:39:19.204Z,112.79767359999998
2023-12-28T08:41:20.293Z,113.1931935
2023-12-28T08:43:21.698Z,113.7097912
2023-12-28T08:45:22.492Z,114.1892611
2023-12-28T08:47:23.547Z,114.6671155
2023-12-28T08:49:24.937Z,114.75429239999998
2023-12-28T08:51:25.713Z,114.51052179999999
2023-12-28T08:53:26.792Z,114.0407401
2023-12-28T08:55:27.894Z,113.46279280000002
2023-12-28T08:57:35.240Z,113.22709340000002
2023-12-28T08:59:30.048Z,113.20126250000001
2023-12-28T09:01:31.221Z,113.49992260000002
2023-12-28T09:03:32.319Z,113.88252709999999
2023-12-28T09:05:33.313Z,113.84055450000002
2023-12-28T09:07:34.386Z,113.7436929
2023-12-28T09:09:35.501Z,113.8954461
2023-12-28T09:11:36.570Z,113.67266180000001
2023-12-28T09:13:37.638Z,113.62423220000001
2023-12-28T09:15:38.750Z,114.08271560000003
2023-12-28T09:17:39.885Z,114.59124369999999
2023-12-28T09:19:41.093Z,114.697793
2023-12-28T09:21:42.013Z,114.98192209999999
2023-12-28T09:23:43.061Z,114.83016930000001
2023-12-28T09:25:44.145Z,114.53150670000002
2023-12-28T09:27:52.324Z,114.29258
2023-12-28T09:29:46.326Z,114.2280025
2023-12-28T09:31:47.470Z,114.0326628
2023-12-28T09:33:48.561Z,114.15374279999999
2023-12-28T09:35:51.164Z,114.18926060000001
2023-12-28T09:37:50.652Z,113.83086840000001
2023-12-28T09:39:51.762Z,113.2771422
2023-12-28T09:41:52.845Z,112.94296990000001
2023-12-28T09:43:56.043Z,112.5087045
2023-12-28T09:45:55.015Z,112.2245758
2023-12-28T09:47:56.176Z,112.00663720000003
2023-12-28T09:49:57.194Z,112.03730929999999
2023-12-28T09:51:58.280Z,112.26977600000001
2023-12-28T09:53:59.345Z,112.6507652
2023-12-28T09:56:00.413Z,112.98816819999999
2023-12-28T09:58:01.555Z,113.12700300000002
2023-12-28T10:00:02.597Z,113.10924589999999
2023-12-28T10:02:03.679Z,112.94458299999997
2023-12-28T10:04:04.779Z,112.8541796
2023-12-28T10:06:05.898Z,112.4296018
2023-12-28T10:08:06.930Z,112.09542860000002
2023-12-28T10:10:08.039Z,112.23910569999998
2023-12-28T10:12:09.136Z,112.47480069999999
2023-12-28T10:14:10.205Z,112.36986630000001
2023-12-28T10:16:11.329Z,112.41991270000001
2023-12-28T10:18:12.441Z,112.59588
2023-12-28T10:20:13.442Z,112.64592499999999
2023-12-28T10:22:14.546Z,112.28915200000002
2023-12-28T10:24:15.614Z,112.07444100000002
2023-12-28T10:26:16.707Z,111.9404473
2023-12-28T10:28:17.791Z,112.0001779
2023-12-28T10:30:19.003Z,111.7547957
2023-12-28T10:32:20.553Z,111.9485179
2023-12-28T10:34:21.181Z,111.9307603
2023-12-28T10:36:22.131Z,112.3182075
2023-12-28T10:38:23.209Z,112.60717849999999
2023-12-28T10:40:24.305Z,113.28844280000001
2023-12-28T10:42:25.433Z,113.32718829999999
2023-12-28T10:44:26.473Z,113.63553199999998
2023-12-28T10:46:27.546Z,113.7533805
2023-12-28T10:48:28.736Z,114.00360950000001
2023-12-28T10:50:29.759Z,114.5686357
2023-12-28T10:52:30.816Z,115.54371470000001
2023-12-28T10:54:31.925Z,116.4945808
2023-12-28T10:56:32.991Z,117.3066105
2023-12-28T10:58:34.066Z,117.87809539999998
2023-12-28T11:00:35.250Z,118.14124269999998
2023-12-28T11:02:36.269Z,118.31721250000001
2023-12-28T11:04:37.364Z,118.30429550000001
2023-12-28T11:06:38.439Z,118.26393519999999
2023-12-28T11:08:39.504Z,118.3963154
2023-12-28T11:10:40.587Z,118.13639719999999
2023-12-28T11:12:41.729Z,118.17998539999999
2023-12-28T11:14:42.749Z,118.3801716
2023-12-28T11:16:43.843Z,118.55613989999999
2023-12-28T11:18:45.026Z,118.6384757
2023-12-28T11:20:46.014Z,118.84673389999998
2023-12-28T11:22:47.101Z,118.8096027
2023-12-28T11:24:48.202Z,118.8515742
2023-12-28T11:26:49.277Z,119.1437739
2023-12-28T11:28:50.394Z,119.52153200000001
2023-12-28T11:30:51.630Z,119.52960300000002
2023-12-28T11:32:52.543Z,119.4472696
2023-12-28T11:34:53.647Z,119.32457640000003
2023-12-28T11:36:54.761Z,118.99686060000002
2023-12-28T11:38:55.786Z,118.436672
2023-12-28T11:40:56.852Z,118.32204870000001
2023-12-28T11:42:58.152Z,118.39308209999999
2023-12-28T11:44:59.035Z,118.4996336
2023-12-28T11:47:00.134Z,118.45442949999999
2023-12-28T11:49:01.271Z,118.6126442
2023-12-28T11:52:02.877Z,118.71919710000002
2023-12-28T11:54:03.935Z,118.76440140000003
2023-12-28T11:56:05.013Z,118.7773169
2023-12-28T11:58:06.148Z,118.9936457
2023-12-28T12:00:07.250Z,118.98557360000002
2023-12-28T12:02:08.281Z,118.98395969999999
2023-12-28T12:04:09.442Z,118.97750249999999
2023-12-28T12:06:10.440Z,118.81606379999998
2023-12-28T12:08:11.511Z,118.41731260000002
2023-12-28T12:10:12.612Z,118.27201299999999
2023-12-28T12:12:13.704Z,118.04115190000002
2023-12-28T12:14:14.786Z,117.75863149999998
2023-12-28T12:16:15.912Z,117.64885089999999
2023-12-28T12:18:17.006Z,117.6472366
2023-12-28T12:20:18.069Z,117.54391989999999
2023-12-28T12:22:19.150Z,117.53423519999998
2023-12-28T12:24:20.245Z,117.56167930000001
2023-12-28T12:26:21.282Z,117.17584710000001
2023-12-28T12:28:22.369Z,116.77548310000002
2023-12-28T12:30:23.489Z,116.38642109999998
2023-12-28T12:32:24.544Z,116.22498660000001
2023-12-28T12:34:25.843Z,116.31862099999998
2023-12-28T12:36:26.728Z,116.45907
2023-12-28T12:38:27.793Z,116.33153340000001
2023-12-28T12:40:28.876Z,116.41548030000001
2023-12-28T12:42:30.021Z,116.3541336
2023-12-28T12:44:31.061Z,116.14910950000001
2023-12-28T12:46:32.154Z,116.34767689999998
2023-12-28T12:48:33.313Z,116.9546783
2023-12-28T12:50:34.300Z,117.2049064
2023-12-28T12:52:35.392Z,117.42930139999999
2023-12-28T12:54:36.505Z,117.49548910000001
2023-12-28T12:56:37.578Z,117.26786460000001
2023-12-28T12:58:38.650Z,117.12096139999998
2023-12-28T13:00:39.772Z,117.2097491
2023-12-28T13:02:40.817Z,117.1661615
2023-12-28T13:04:42.029Z,117.16939049999999
2023-12-28T13:06:43.046Z,117.4034718
2023-12-28T13:08:44.177Z,117.54391759999999
2023-12-28T13:10:45.163Z,117.54391749999999
2023-12-28T13:12:46.258Z,117.5536041
2023-12-28T13:14:47.336Z,117.43898650000001
2023-12-28T13:16:48.434Z,117.26140799999999
2023-12-28T13:18:49.598Z,117.22105059999998
2023-12-28T13:20:50.591Z,117.13871840000002
2023-12-28T13:22:51.679Z,116.98696949999999
2023-12-28T13:24:52.780Z,116.9675972
2023-12-28T13:26:53.857Z,117.1015891
2023-12-28T13:28:54.930Z,117.07414639999999
2023-12-28T13:30:56.081Z,117.0757628
2023-12-28T13:32:57.368Z,117.2597978
2023-12-28T13:34:59.855Z,117.3389018
2023-12-28T13:36:59.334Z,117.34213070000001
2023-12-28T13:39:00.357Z,117.469662
2023-12-28T13:41:01.453Z,117.62463729999999
2023-12-28T13:43:02.768Z,117.7279566
2023-12-28T13:45:03.603Z,117.8651736
2023-12-28T13:47:06.877Z,118.01207790000001
2023-12-28T13:49:05.853Z,118.04113639999998
2023-12-28T13:51:06.882Z,117.97171940000001
2023-12-28T13:53:07.956Z,117.7876839
2023-12-28T13:55:09.173Z,117.75055449999999
2023-12-28T13:57:10.139Z,117.6924371
2023-12-28T13:59:11.218Z,117.4422143
2023-12-28T14:01:12.376Z,117.3324402
2023-12-28T14:03:13.486Z,117.30822529999998
2023-12-28T14:05:14.886Z,117.31791100000002
2023-12-28T14:07:15.582Z,117.23881080000001
2023-12-28T14:09:16.641Z,117.3227573
2023-12-28T14:11:17.724Z,117.45029009999999
2023-12-28T14:13:18.816Z,117.40670149999998
2023-12-28T14:15:19.927Z,117.2065233
2023-12-28T14:17:20.993Z,117.16939300000001
2023-12-28T14:19:22.163Z,117.06607389999999
2023-12-28T14:21:23.183Z,116.78356149999999
2023-12-28T14:23:24.243Z,116.636654
2023-12-28T14:25:25.339Z,116.53817690000001
2023-12-28T14:27:26.431Z,116.35736700000002
2023-12-28T14:29:27.502Z,116.3024782
2023-12-28T14:31:28.781Z,116.5042745
2023-12-28T14:33:29.737Z,116.75288700000002
2023-12-28T14:35:30.745Z,116.9223964
2023-12-28T14:37:31.835Z,117.06123300000002
2023-12-28T14:39:32.940Z,117.2501134
2023-12-28T14:41:34.013Z,117.2517278
2023-12-28T14:43:35.101Z,117.2129841
2023-12-28T14:45:36.235Z,117.17262480000002
2023-12-28T14:47:37.303Z,117.1500235
2023-12-28T14:49:38.782Z,117.13226549999999
2023-12-28T14:51:39.458Z,117.3647353
2023-12-28T14:53:40.521Z,117.64240709999999
2023-12-28T14:55:41.601Z,117.91200380000001
2023-12-28T14:57:42.724Z,118.1961297
2023-12-28T14:59:43.793Z,118.40599679999998
2023-12-28T15:01:44.952Z,118.45120140000002
2023-12-28T15:03:46.016Z,118.5077061
2023-12-28T15:05:47.051Z,118.509321
2023-12-28T15:07:48.111Z,118.55291170000001
2023-12-28T15:09:49.245Z,118.52546600000001
2023-12-28T15:11:50.294Z,118.48026100000001
2023-12-28T15:13:51.374Z,118.41245479999998
2023-12-28T15:15:52.544Z,118.33496399999999
2023-12-28T15:17:53.651Z,118.28814360000001
2023-12-28T15:19:54.746Z,118.37209600000001
2023-12-28T15:21:55.764Z,118.27361700000002
2023-12-28T15:23:56.798Z,118.1428491
2023-12-28T15:25:57.895Z,118.084732
2023-12-28T15:27:59.287Z,118.00724229999999
2023-12-28T15:30:00.046Z,117.9313617
2023-12-28T15:32:01.140Z,117.94266059999998
2023-12-28T15:34:02.369Z,118.01853780000002
2023-12-28T15:36:03.314Z,118.14768810000001
2023-12-28T15:38:04.388Z,118.2235645
2023-12-28T15:40:05.518Z,118.25908369999999
2023-12-28T15:42:06.567Z,118.2736142
2023-12-28T15:44:07.645Z,118.30590280000001
2023-12-28T15:46:08.759Z,118.3624083
2023-12-28T15:48:09.910Z,118.3898533
2023-12-28T15:50:10.977Z,118.3317321
2023-12-28T15:52:12.032Z,118.4189116
2023-12-28T15:54:13.081Z,118.46250239999999
2023-12-28T15:56:16.687Z,118.3946958
2023-12-28T15:58:15.274Z,118.28330369999999
2023-12-28T16:00:16.350Z,118.23810099999999
2023-12-28T16:02:17.416Z,118.04921619999998
2023-12-28T16:04:18.529Z,117.93459030000001
2023-12-28T16:06:19.585Z,117.9087591
2023-12-28T16:08:20.685Z,117.97978989999999
2023-12-28T16:10:21.744Z,117.93943229999999
2023-12-28T16:12:22.864Z,117.88293250000001
2023-12-28T16:14:23.930Z,117.74571449999999
2023-12-28T16:16:25.010Z,117.55037990000001
2023-12-28T16:18:26.175Z,117.39056099999998
2023-12-28T16:20:27.190Z,117.23235610000002
2023-12-28T16:22:28.256Z,117.1161215
2023-12-28T16:24:29.405Z,117.0402474
2023-12-28T16:26:30.447Z,116.9724438
2023-12-28T16:28:31.532Z,116.86105300000001
2023-12-28T16:30:32.636Z,116.81585079999999
2023-12-28T16:32:33.730Z,116.83845210000001
2023-12-28T16:34:34.814Z,116.79002080000001
2023-12-28T16:36:35.886Z,116.77064820000001
2023-12-28T16:38:36.968Z,116.73513189999998
2023-12-28T16:40:38.029Z,116.6818573
2023-12-28T16:42:39.125Z,116.591452
2023-12-28T16:44:40.203Z,116.6188964
2023-12-28T16:46:41.302Z,116.61405319999999
2023-12-28T16:48:42.471Z,116.5930663
2023-12-28T16:50:43.462Z,116.6398833
2023-12-28T16:52:44.551Z,116.6172822
2023-12-28T16:54:45.653Z,116.58660899999998
2023-12-28T16:56:46.734Z,116.67217109999999
2023-12-28T16:58:47.820Z,116.667328
2023-12-28T17:00:48.947Z,116.64634110000001
2023-12-28T17:02:50.006Z,116.5769228
2023-12-28T17:04:51.128Z,116.6108244
2023-12-28T17:06:52.160Z,116.64311200000002
2023-12-28T17:08:53.238Z,116.5075041
2023-12-28T17:10:54.336Z,116.36705299999998
2023-12-28T17:12:55.409Z,116.2427457
2023-12-28T17:14:56.498Z,116.1216672
2023-12-28T17:16:57.577Z,115.63896880000001
2023-12-28T17:18:58.808Z,115.1159107
2023-12-28T17:20:59.760Z,114.70101610000002
2023-12-28T17:23:00.838Z,114.5072908
2023-12-28T17:25:02.051Z,114.13921230000001
2023-12-28T17:27:03.007Z,114.29903510000001
2023-12-28T17:29:04.084Z,114.6348256
2023-12-28T17:31:05.205Z,114.8414661
2023-12-28T17:33:06.306Z,115.0142046
2023-12-28T17:35:07.958Z,115.24506149999999
2023-12-28T17:37:08.450Z,115.46784569999997
2023-12-28T17:39:09.501Z,115.72614610000001
2023-12-28T17:41:10.612Z,115.93440030000002
2023-12-28T17:43:11.692Z,116.0248055
2023-12-28T17:45:12.770Z,116.20561540000001
2023-12-28T17:47:13.864Z,116.15718399999999
2023-12-28T17:49:14.986Z,116.0522493
2023-12-28T17:51:16.030Z,116.0199617
2023-12-28T17:53:17.117Z,116.00220349999998
2023-12-28T17:55:18.255Z,116.07323620000003
2023-12-28T17:57:19.293Z,116.162027
2023-12-28T17:59:20.362Z,116.18139999999998
2023-12-28T18:01:21.517Z,116.11521069999999
2023-12-28T18:03:22.624Z,116.2879493
2023-12-28T18:05:23.640Z,116.27503420000001
2023-12-28T18:07:24.739Z,116.29117800000002
2023-12-28T18:09:25.813Z,116.3557528
2023-12-28T18:11:26.912Z,116.489746
2023-12-28T18:13:27.980Z,116.4203277
2023-12-28T18:15:29.064Z,116.3735107
2023-12-28T18:17:30.150Z,116.3347656
2023-12-28T18:19:31.279Z,116.37028190000001
2023-12-28T18:21:32.371Z,116.38481130000002
2023-12-28T18:23:33.381Z,116.3977263
2023-12-28T18:25:34.483Z,116.35252360000001
2023-12-28T18:27:35.568Z,116.2718047
2023-12-28T18:29:36.648Z,116.18624270000001
2023-12-28T18:31:37.873Z,115.89081279999998
2023-12-28T18:33:38.971Z,115.41779990000002
2023-12-28T18:35:39.904Z,115.24829170000001
2023-12-28T18:37:41.019Z,115.21116090000001
2023-12-28T18:39:42.126Z,115.099769
2023-12-28T18:41:43.163Z,115.09169579999998
2023-12-28T18:43:44.245Z,115.3742119
2023-12-28T18:45:45.355Z,115.5178901
2023-12-28T18:47:46.452Z,115.65511240000001
2023-12-28T18:49:47.570Z,115.6389682
2023-12-28T18:51:48.595Z,115.80363470000002
2023-12-28T18:53:49.688Z,115.90372620000002
2023-12-28T18:55:50.750Z,115.8004072
2023-12-28T18:57:52.824Z,115.5211212
2023-12-28T18:59:52.949Z,115.38389909999998
2023-12-28T19:01:54.123Z,115.0545655
2023-12-28T19:03:55.213Z,114.71716230000001
2023-12-28T19:05:56.281Z,114.46047619999999
2023-12-28T19:07:57.342Z,114.5702526
2023-12-28T19:09:58.374Z,114.61868449999997
2023-12-28T19:11:59.440Z,114.95931870000001
2023-12-28T19:14:00.515Z,115.25313410000001
2023-12-28T19:16:01.685Z,115.6647993
2023-12-28T19:18:02.926Z,115.90857009999998
2023-12-28T19:20:03.808Z,116.3266937
2023-12-28T19:22:04.973Z,116.55593560000003
2023-12-28T19:24:05.962Z,116.86912129999999
2023-12-28T19:26:07.036Z,117.06607470000002
2023-12-28T19:28:08.152Z,117.13872039999998
2023-12-28T19:30:09.255Z,117.17584910000001
2023-12-28T19:32:10.294Z,117.09513020000001
2023-12-28T19:34:11.431Z,116.97082650000002
2023-12-28T19:36:12.478Z,116.9869711
2023-12-28T19:38:13.566Z,116.91916880000001